Current Weather

Timimoun

Timimoun, Algeria (DAUT)

Report from: Tuesday, July 16, 2024 10:00 AM CET
Current time: Tuesday, July 16, 2024 11:01 AM CET

Nearby weather – Weather history – Daily summaries
Weather forecast

Present weatherHaze
Temperature40.0°C (104.0°F)
Heat index37.9°C (100.2°F)
Dew point8.0°C (46.4°F)
Winds 15 kts (7.7 m/s, 17.3 mph) South-Southwest (210°)
Visibility1.2 mi. (2 km)
Altimeter29.88 in.Hg (1012 mB)
Relative humidity15 %
Density altitude3,007 ft. (917 m)
Flight conditions Instrument Meteorological Conditions
Raw dataDAUT 160900Z 21015KT 2000 HZ NSC 40/08 Q1012
An error has occurred. This application may no longer respond until reloaded. Reload 🗙